Time;durP1;ratioP1;P1;durP2;ratioP2;P2;SDS_P1;SDS_P2;PMS_P1;PMS_P2;Temp;Humidity;BMP_temperature;BMP_pressure;BME280_temperature;BME280_humidity;BME280_pressure;Samples;Min_cycle;Max_cycle;Signal;HPM_P1;HPM_P2
2022/01/23 00:01:26;;;;;;;15.70;10.97;;;5.40;99.90;;;;;;5053323;28;20440;-89
2022/01/23 00:03:54;;;;;;;14.13;10.30;;;5.40;99.90;;;;;;5069971;28;20443;-89
2022/01/23 00:06:21;;;;;;;15.83;13.50;;;5.40;99.90;;;;;;5042584;28;20473;-88
2022/01/23 00:08:48;;;;;;;16.43;12.37;;;5.40;99.90;;;;;;5041496;28;20452;-89
2022/01/23 00:11:15;;;;;;;16.23;12.40;;;5.40;99.90;;;;;;5034107;28;20449;-89
2022/01/23 00:19:07;;;;;;;17.67;11.20;;;5.40;99.90;;;;;;5052932;28;20486;-89
2022/01/23 00:21:36;;;;;;;14.23;11.63;;;5.40;99.90;;;;;;5052309;28;20864;-89
2022/01/23 00:32:16;;;;;;;12.97;9.90;;;5.40;99.90;;;;;;5035480;28;20437;-88
2022/01/23 00:34:44;;;;;;;20.20;12.40;;;5.40;99.90;;;;;;5038486;28;20568;-88
2022/01/23 00:37:10;;;;;;;12.30;9.50;;;5.40;99.90;;;;;;5033585;28;20814;-87
2022/01/23 00:39:37;;;;;;;15.17;11.53;;;5.40;99.90;;;;;;5034159;28;20864;-87
2022/01/23 00:42:05;;;;;;;16.70;12.07;;;5.40;99.90;;;;;;5049579;28;20475;-88
2022/01/23 00:44:33;;;;;;;13.40;11.40;;;5.40;99.90;;;;;;5039947;28;20456;-87
2022/01/23 00:47:00;;;;;;;11.97;9.67;;;5.40;99.90;;;;;;5044263;28;20836;-88
2022/01/23 00:49:26;;;;;;;13.10;9.80;;;5.40;99.90;;;;;;5052161;28;20459;-87
2022/01/23 00:51:56;;;;;;;14.60;12.57;;;5.40;99.90;;;;;;5057075;28;20459;-88
2022/01/23 00:54:23;;;;;;;18.80;12.43;;;5.40;99.90;;;;;;5051491;28;20480;-88
2022/01/23 00:56:50;;;;;;;16.53;11.80;;;5.40;99.90;;;;;;5057240;28;20482;-88
2022/01/23 00:59:17;;;;;;;13.77;11.23;;;5.40;99.90;;;;;;5062112;28;20456;-88
2022/01/23 01:01:43;;;;;;;19.30;13.70;;;5.40;99.90;;;;;;5064764;28;20456;-89
2022/01/23 01:04:10;;;;;;;13.33;11.60;;;5.40;99.90;;;;;;5043154;28;20452;-87
2022/01/23 01:06:37;;;;;;;16.37;11.80;;;5.40;99.90;;;;;;5048051;28;20460;-87
2022/01/23 01:09:06;;;;;;;14.80;11.30;;;5.50;99.90;;;;;;5056450;28;20442;-87
2022/01/23 01:11:57;;;;;;;15.77;12.30;;;5.50;99.90;;;;;;5049923;28;20458;-87
2022/01/23 01:14:34;;;;;;;15.53;12.27;;;5.50;99.90;;;;;;5056278;28;20482;-87
2022/01/23 01:17:08;;;;;;;16.07;12.00;;;5.40;99.90;;;;;;5058136;28;20535;-88
2022/01/23 01:30:59;;;;;;;17.33;12.50;;;5.40;99.90;;;;;;5037111;28;20940;-88
2022/01/23 01:33:36;;;;;;;14.90;11.70;;;5.40;99.90;;;;;;5046192;28;20475;-88
2022/01/23 01:36:17;;;;;;;17.30;13.80;;;5.40;99.90;;;;;;5044874;28;20473;-87
2022/01/23 01:38:44;;;;;;;17.30;14.00;;;5.40;99.90;;;;;;5061171;28;20957;-89
2022/01/23 01:41:12;;;;;;;16.80;13.50;;;5.40;99.90;;;;;;5050376;28;20824;-88
2022/01/23 01:43:39;;;;;;;19.97;14.13;;;5.40;99.90;;;;;;5033592;28;20446;-89
2022/01/23 01:46:06;;;;;;;20.80;13.30;;;5.40;99.90;;;;;;5053541;28;20464;-88
2022/01/23 01:48:32;;;;;;;16.30;13.10;;;5.40;99.90;;;;;;5064343;28;20564;-90
2022/01/23 01:51:00;;;;;;;17.87;13.97;;;5.40;99.90;;;;;;5044528;28;20441;-89
2022/01/23 01:53:27;;;;;;;18.57;13.50;;;5.40;99.90;;;;;;5057039;28;20476;-88
2022/01/23 01:55:56;;;;;;;20.03;14.60;;;5.40;99.90;;;;;;5064578;28;20483;-89
2022/01/23 01:58:57;;;;;;;19.57;14.10;;;5.40;99.90;;;;;;5037424;28;21007;-88
2022/01/23 02:09:36;;;;;;;18.00;15.23;;;5.50;99.90;;;;;;5053462;28;20491;-89
2022/01/23 02:12:19;;;;;;;17.30;13.90;;;5.50;99.90;;;;;;5048091;28;20448;-88
2022/01/23 02:15:10;;;;;;;18.90;14.13;;;5.50;99.90;;;;;;5057732;28;20480;-88
2022/01/23 02:17:54;;;;;;;18.20;13.77;;;5.30;99.90;;;;;;5056618;28;20523;-88
2022/01/23 02:23:24;;;;;;;21.27;16.10;;;5.40;99.90;;;;;;5036802;28;20448;-88
2022/01/23 02:50:44;;;;;;;20.10;14.53;;;5.40;99.90;;;;;;5037601;28;20436;-88
2022/01/23 02:53:31;;;;;;;21.00;14.87;;;5.40;99.90;;;;;;5035835;28;20457;-88
2022/01/23 02:55:59;;;;;;;19.63;15.27;;;5.40;99.90;;;;;;5034815;28;20520;-88
2022/01/23 02:58:33;;;;;;;20.70;14.60;;;5.30;99.90;;;;;;5054398;28;20456;-88
2022/01/23 03:01:09;;;;;;;21.13;16.10;;;5.30;99.90;;;;;;5055550;28;20795;-88
2022/01/23 03:03:40;;;;;;;18.30;14.13;;;5.30;99.90;;;;;;5052450;28;20503;-89
2022/01/23 03:06:21;;;;;;;21.40;15.30;;;5.40;99.90;;;;;;5039487;28;20480;-88
2022/01/23 03:09:49;;;;;;;19.70;14.17;;;5.30;99.90;;;;;;5049498;28;20951;-89
2022/01/23 03:12:09;;;;;;;21.30;15.27;;;5.30;99.90;;;;;;5051085;28;20516;-88
2022/01/23 03:14:43;;;;;;;19.33;15.53;;;5.30;99.90;;;;;;5037372;28;20575;-88
2022/01/23 03:25:52;;;;;;;24.30;15.90;;;5.20;99.90;;;;;;5060608;28;20485;-89
2022/01/23 03:28:26;;;;;;;21.20;16.60;;;5.30;99.90;;;;;;5038804;28;20540;-88
2022/01/23 03:31:05;;;;;;;23.33;15.63;;;5.20;99.90;;;;;;5035379;28;20452;-88
2022/01/23 03:33:32;;;;;;;22.87;15.43;;;5.20;99.90;;;;;;5053534;28;20500;-88
2022/01/23 03:35:59;;;;;;;24.87;17.67;;;5.30;99.90;;;;;;5054138;28;20468;-89
2022/01/23 03:38:26;;;;;;;21.17;15.77;;;5.20;99.90;;;;;;5053893;28;20448;-87
2022/01/23 03:40:54;;;;;;;26.47;18.80;;;5.30;99.90;;;;;;5053742;28;20444;-88
2022/01/23 03:43:27;;;;;;;23.60;17.97;;;5.20;99.90;;;;;;5054443;28;20486;-88
2022/01/23 03:46:09;;;;;;;21.10;16.03;;;5.10;99.90;;;;;;5034907;28;20552;-88
2022/01/23 03:51:20;;;;;;;24.23;16.87;;;5.20;99.90;;;;;;5048413;28;20443;-88
2022/01/23 03:53:47;;;;;;;23.43;18.90;;;5.20;99.90;;;;;;5059120;28;20465;-89
2022/01/23 03:56:17;;;;;;;20.57;16.40;;;5.20;99.90;;;;;;5064998;28;20480;-88
2022/01/23 03:58:44;;;;;;;23.03;15.80;;;5.20;99.90;;;;;;5072757;28;20448;-89
2022/01/23 04:01:11;;;;;;;24.13;16.60;;;5.20;99.90;;;;;;5064781;28;20438;-89
2022/01/23 04:03:39;;;;;;;24.00;17.53;;;5.20;99.90;;;;;;5036862;28;20449;-88
2022/01/23 04:06:06;;;;;;;23.77;17.53;;;5.20;99.90;;;;;;5034463;28;20476;-88
2022/01/23 04:08:32;;;;;;;23.70;17.87;;;5.20;99.90;;;;;;5034181;28;20452;-88
2022/01/23 04:11:00;;;;;;;26.07;17.73;;;5.00;99.90;;;;;;5050539;28;20453;-88
2022/01/23 04:13:39;;;;;;;23.70;16.10;;;5.10;99.90;;;;;;5036018;28;20453;-88
2022/01/23 04:16:16;;;;;;;24.40;18.23;;;5.00;99.90;;;;;;5053963;28;20559;-89
2022/01/23 04:32:44;;;;;;;25.60;18.33;;;5.00;99.90;;;;;;5046219;28;20868;-88
2022/01/23 04:35:39;;;;;;;23.73;17.40;;;5.00;99.90;;;;;;5042981;28;20908;-88
2022/01/23 04:46:38;;;;;;;27.30;17.67;;;5.00;99.90;;;;;;5055672;28;20461;-88
2022/01/23 05:00:08;;;;;;;23.60;17.40;;;5.00;99.90;;;;;;4982866;28;20449;-88
2022/01/23 05:03:09;;;;;;;25.50;18.13;;;5.00;99.90;;;;;;5051181;28;20906;-89
2022/01/23 05:05:35;;;;;;;30.20;19.50;;;5.00;99.90;;;;;;5052149;28;20539;-87
2022/01/23 05:08:05;;;;;;;29.43;19.80;;;5.10;99.90;;;;;;5052915;28;20452;-88
2022/01/23 05:10:32;;;;;;;30.23;18.50;;;5.00;99.90;;;;;;5047304;28;20998;-88
2022/01/23 05:12:58;;;;;;;27.50;18.27;;;5.00;99.90;;;;;;5057168;28;20463;-88
2022/01/23 05:15:25;;;;;;;31.10;19.63;;;5.00;99.90;;;;;;5054694;28;20481;-89
2022/01/23 05:17:53;;;;;;;25.43;19.10;;;5.00;99.90;;;;;;5069074;28;20447;-89
2022/01/23 05:20:24;;;;;;;31.57;21.00;;;5.00;99.90;;;;;;5043560;28;20460;-88
2022/01/23 05:22:53;;;;;;;34.47;20.73;;;4.90;99.90;;;;;;5032928;28;20536;-88
2022/01/23 05:25:23;;;;;;;27.50;19.77;;;4.90;99.90;;;;;;5049740;28;20468;-88
2022/01/23 05:27:52;;;;;;;28.50;18.63;;;4.90;99.90;;;;;;5049206;28;20457;-88
2022/01/23 05:30:20;;;;;;;27.63;19.63;;;4.80;99.90;;;;;;5048185;28;20445;-88
2022/01/23 05:32:47;;;;;;;27.43;19.57;;;4.90;99.90;;;;;;5054132;28;20456;-88
2022/01/23 05:35:18;;;;;;;24.23;18.37;;;5.00;99.90;;;;;;5050812;28;20517;-89
2022/01/23 05:37:45;;;;;;;25.97;19.10;;;5.00;99.90;;;;;;5045523;28;20452;-88
2022/01/23 05:40:14;;;;;;;29.33;17.27;;;5.00;99.90;;;;;;5045734;28;20449;-88
2022/01/23 05:42:41;;;;;;;26.10;17.87;;;5.00;99.90;;;;;;5053978;28;20595;-88
2022/01/23 05:45:09;;;;;;;27.60;18.93;;;5.00;99.90;;;;;;5058352;28;20499;-89
2022/01/23 05:47:44;;;;;;;27.33;20.30;;;5.00;99.90;;;;;;5066253;28;20457;-90
2022/01/23 05:50:11;;;;;;;26.20;20.43;;;5.00;99.90;;;;;;5039010;28;20511;-90
2022/01/23 05:52:39;;;;;;;29.33;20.30;;;5.00;99.90;;;;;;5051442;28;20448;-89
2022/01/23 05:57:35;;;;;;;32.30;19.07;;;5.10;99.90;;;;;;5057556;28;20960;-88
2022/01/23 06:00:02;;;;;;;27.40;19.27;;;5.10;99.90;;;;;;5064173;28;20464;-88
2022/01/23 06:02:29;;;;;;;25.00;19.07;;;5.00;99.90;;;;;;5056278;28;20444;-88
2022/01/23 06:04:56;;;;;;;28.47;20.73;;;5.10;99.90;;;;;;5065092;28;20452;-89
2022/01/23 06:07:24;;;;;;;30.20;21.93;;;5.10;99.90;;;;;;5068711;28;20818;-88
2022/01/23 06:09:52;;;;;;;28.17;19.17;;;5.10;99.90;;;;;;5052563;28;20455;-88
2022/01/23 06:12:19;;;;;;;32.30;22.53;;;5.10;99.90;;;;;;5033446;28;20441;-88
2022/01/23 06:14:46;;;;;;;31.43;21.40;;;5.00;99.90;;;;;;5036551;28;20477;-88
2022/01/23 06:17:12;;;;;;;34.53;22.97;;;5.00;99.90;;;;;;5033047;28;20527;-88
2022/01/23 06:19:39;;;;;;;29.10;19.63;;;5.00;99.90;;;;;;5050282;28;20452;-88
2022/01/23 06:22:06;;;;;;;30.53;20.40;;;5.00;99.90;;;;;;5052719;28;21076;-87
2022/01/23 06:24:33;;;;;;;29.20;19.80;;;5.00;99.90;;;;;;5053332;28;20466;-87
2022/01/23 06:27:03;;;;;;;25.80;19.40;;;5.00;99.90;;;;;;5053076;28;20836;-87
2022/01/23 06:29:30;;;;;;;30.47;21.33;;;5.00;99.90;;;;;;5052822;28;20444;-87
2022/01/23 06:32:00;;;;;;;29.60;20.47;;;5.00;99.90;;;;;;5064947;28;20961;-87
2022/01/23 06:34:27;;;;;;;29.83;21.37;;;5.00;99.90;;;;;;5040308;28;20547;-86
2022/01/23 06:36:54;;;;;;;32.60;20.97;;;5.00;99.90;;;;;;5045627;28;20494;-88
2022/01/23 06:39:22;;;;;;;31.83;21.20;;;5.00;99.90;;;;;;5053766;28;20491;-88
2022/01/23 06:41:49;;;;;;;31.00;20.63;;;5.00;99.90;;;;;;5039445;28;20464;-87
2022/01/23 06:44:18;;;;;;;30.83;22.40;;;5.00;99.90;;;;;;5040475;28;20459;-87
2022/01/23 06:46:45;;;;;;;27.73;20.20;;;5.00;99.90;;;;;;5059388;28;20468;-87
2022/01/23 06:49:12;;;;;;;31.10;21.37;;;5.00;99.90;;;;;;5061715;28;20455;-88
2022/01/23 06:51:41;;;;;;;28.73;20.63;;;4.90;99.90;;;;;;5058611;28;20544;-87
2022/01/23 06:54:08;;;;;;;32.60;21.03;;;4.90;99.90;;;;;;5055613;28;20472;-86
2022/01/23 06:56:34;;;;;;;30.60;21.57;;;5.00;99.90;;;;;;5062636;28;20475;-87
2022/01/23 06:59:01;;;;;;;32.97;22.50;;;5.00;99.90;;;;;;5059755;28;20430;-88
2022/01/23 07:01:29;;;;;;;34.00;21.67;;;5.00;99.90;;;;;;5045179;28;20449;-87
2022/01/23 07:03:56;;;;;;;33.67;22.47;;;4.90;99.90;;;;;;5067440;28;20440;-89
2022/01/23 07:06:23;;;;;;;36.30;24.87;;;4.90;99.90;;;;;;5064309;28;20476;-87
2022/01/23 07:08:50;;;;;;;33.90;25.30;;;4.90;99.90;;;;;;5061299;28;20470;-87
2022/01/23 07:11:16;;;;;;;31.23;21.93;;;5.00;99.90;;;;;;5044733;28;20479;-88
2022/01/23 07:13:43;;;;;;;30.43;22.10;;;5.00;99.90;;;;;;5056015;28;20440;-88
2022/01/23 07:16:10;;;;;;;36.20;24.17;;;5.00;99.90;;;;;;5039607;28;20545;-87
2022/01/23 07:18:38;;;;;;;31.37;21.00;;;4.90;99.90;;;;;;5045757;28;20437;-87
2022/01/23 07:21:04;;;;;;;37.43;20.17;;;5.00;99.90;;;;;;5058687;28;20459;-87
2022/01/23 07:23:31;;;;;;;29.30;20.60;;;5.00;99.90;;;;;;5056600;28;20456;-88
2022/01/23 07:25:59;;;;;;;30.50;22.13;;;5.00;99.90;;;;;;5039039;28;20830;-88
2022/01/23 07:28:36;;;;;;;31.80;22.57;;;5.00;99.90;;;;;;5047521;28;20457;-86
2022/01/23 07:31:05;;;;;;;32.97;22.57;;;5.00;99.90;;;;;;5070583;28;20448;-87
2022/01/23 07:33:33;;;;;;;31.77;22.73;;;5.00;99.90;;;;;;5055022;28;20432;-87
2022/01/23 07:36:02;;;;;;;31.23;22.73;;;5.00;99.90;;;;;;5055520;28;20496;-88
2022/01/23 07:38:30;;;;;;;31.63;21.50;;;5.00;99.90;;;;;;5046209;28;20471;-88
2022/01/23 07:40:57;;;;;;;36.07;24.77;;;5.00;99.90;;;;;;5060341;28;20456;-88
2022/01/23 07:43:24;;;;;;;35.60;24.10;;;5.10;99.90;;;;;;5046775;28;20449;-87
2022/01/23 07:45:50;;;;;;;31.70;23.10;;;5.00;99.90;;;;;;5064824;28;20472;-87
2022/01/23 07:48:17;;;;;;;35.07;24.53;;;5.00;99.90;;;;;;5074340;28;20456;-88
2022/01/23 07:50:44;;;;;;;31.60;21.77;;;5.10;99.90;;;;;;5056231;28;20453;-87
2022/01/23 07:53:12;;;;;;;34.63;23.07;;;5.10;99.90;;;;;;5057274;28;20434;-89
2022/01/23 07:55:39;;;;;;;33.90;22.73;;;5.20;99.90;;;;;;5065947;28;20476;-88
2022/01/23 07:58:12;;;;;;;35.30;24.70;;;5.20;99.90;;;;;;5068277;28;20476;-88
2022/01/23 08:00:40;;;;;;;37.43;25.13;;;5.20;99.90;;;;;;5073046;28;20461;-88
2022/01/23 08:03:07;;;;;;;30.90;23.27;;;5.30;99.90;;;;;;5044665;28;20453;-88
2022/01/23 08:05:34;;;;;;;35.30;24.63;;;5.30;99.90;;;;;;5037159;28;20484;-86
2022/01/23 08:08:01;;;;;;;28.90;21.63;;;5.40;99.90;;;;;;5056823;28;20444;-86
2022/01/23 08:10:29;;;;;;;34.23;23.57;;;5.40;99.90;;;;;;5059794;28;20448;-85
2022/01/23 08:12:56;;;;;;;34.07;24.27;;;5.50;99.90;;;;;;5075380;28;20444;-84
2022/01/23 08:15:23;;;;;;;33.23;23.90;;;5.50;99.90;;;;;;5059497;28;20465;-86
2022/01/23 08:17:49;;;;;;;31.70;23.50;;;5.60;99.90;;;;;;5071439;28;20448;-85
2022/01/23 08:20:17;;;;;;;32.27;22.70;;;5.60;99.90;;;;;;5075549;28;20452;-86
2022/01/23 08:22:43;;;;;;;31.80;22.53;;;5.60;99.90;;;;;;5058338;28;20817;-86
2022/01/23 08:25:10;;;;;;;31.57;23.70;;;5.70;99.90;;;;;;5056804;28;20444;-87
2022/01/23 08:27:38;;;;;;;37.63;22.67;;;5.70;99.90;;;;;;5056145;28;20526;-86
2022/01/23 08:30:06;;;;;;;32.67;23.67;;;5.60;99.90;;;;;;5053829;28;20902;-87
2022/01/23 08:32:33;;;;;;;32.50;22.03;;;5.60;99.90;;;;;;5055915;28;20443;-87
2022/01/23 08:35:00;;;;;;;29.87;22.97;;;5.70;99.90;;;;;;5049531;28;20469;-88
2022/01/23 08:37:27;;;;;;;34.97;24.37;;;5.70;99.90;;;;;;5052740;28;20814;-88
2022/01/23 08:39:54;;;;;;;34.50;23.13;;;5.70;99.90;;;;;;5049629;28;20452;-86
2022/01/23 08:42:21;;;;;;;31.80;23.90;;;5.70;99.90;;;;;;5053321;28;20445;-87
2022/01/23 08:44:50;;;;;;;29.43;22.13;;;5.80;99.90;;;;;;5058499;28;20452;-87
2022/01/23 08:47:17;;;;;;;31.83;23.43;;;5.90;99.90;;;;;;5055894;28;20469;-86
2022/01/23 08:49:48;;;;;;;35.30;22.77;;;6.00;99.90;;;;;;5048499;28;20543;-87
2022/01/23 08:52:17;;;;;;;29.87;21.20;;;6.10;99.90;;;;;;5053420;28;20452;-88
2022/01/23 08:54:48;;;;;;;27.47;19.57;;;6.10;99.90;;;;;;5040970;28;20433;-86
2022/01/23 08:57:15;;;;;;;29.67;21.73;;;6.20;99.90;;;;;;5054689;28;20476;-87
2022/01/23 08:59:43;;;;;;;32.33;23.60;;;6.20;99.90;;;;;;5055117;28;20452;-85
2022/01/23 09:02:11;;;;;;;30.80;22.50;;;6.30;99.90;;;;;;5052493;28;20448;-86
2022/01/23 09:04:38;;;;;;;27.30;21.90;;;6.30;99.90;;;;;;5053124;28;20445;-85
2022/01/23 09:07:05;;;;;;;32.23;22.20;;;6.30;99.90;;;;;;5046333;28;20468;-85
2022/01/23 09:09:37;;;;;;;34.73;22.67;;;6.30;99.90;;;;;;5055429;28;20440;-86
2022/01/23 09:12:07;;;;;;;29.07;20.23;;;6.30;99.90;;;;;;5048710;28;20456;-85
2022/01/23 09:14:34;;;;;;;29.67;19.93;;;6.50;99.90;;;;;;5050443;28;20448;-86
2022/01/23 09:17:03;;;;;;;28.70;21.67;;;6.80;99.90;;;;;;5065273;28;20494;-84
2022/01/23 09:19:31;;;;;;;25.60;21.30;;;7.00;99.90;;;;;;5063507;28;20425;-84
2022/01/23 09:21:59;;;;;;;29.33;20.40;;;7.30;99.90;;;;;;5068651;28;20448;-84
2022/01/23 09:24:27;;;;;;;27.97;21.20;;;7.30;99.90;;;;;;5062804;28;20452;-85
2022/01/23 09:27:01;;;;;;;27.43;21.07;;;7.20;99.90;;;;;;5059911;28;20552;-86
2022/01/23 09:29:32;;;;;;;27.07;21.40;;;7.40;99.90;;;;;;5051736;28;20453;-87
2022/01/23 09:32:00;;;;;;;23.40;18.20;;;7.60;99.90;;;;;;5057584;28;20440;-86
2022/01/23 09:34:32;;;;;;;31.17;22.40;;;7.80;99.90;;;;;;5051541;28;20448;-86
2022/01/23 09:37:01;;;;;;;24.93;20.40;;;8.00;99.90;;;;;;5052722;28;20480;-84
2022/01/23 09:39:28;;;;;;;28.23;22.40;;;8.20;99.90;;;;;;5061602;28;20514;-85
2022/01/23 09:42:05;;;;;;;28.63;20.90;;;8.30;99.90;;;;;;5055029;28;20546;-86
2022/01/23 09:44:36;;;;;;;26.30;21.93;;;8.20;99.90;;;;;;5058995;28;20498;-86
2022/01/23 09:47:04;;;;;;;27.60;22.37;;;8.20;99.90;;;;;;5054949;28;20449;-85
2022/01/23 09:49:32;;;;;;;30.00;22.57;;;8.20;99.90;;;;;;5057028;28;20445;-86
2022/01/23 09:52:02;;;;;;;29.90;21.93;;;8.00;99.90;;;;;;5052504;28;20453;-84
2022/01/23 09:54:31;;;;;;;30.63;23.27;;;8.00;99.90;;;;;;5049088;28;20443;-85
2022/01/23 09:57:00;;;;;;;31.57;22.07;;;8.10;99.90;;;;;;5049655;28;20475;-85
2022/01/23 09:59:28;;;;;;;27.10;21.50;;;8.30;99.90;;;;;;5042529;28;20444;-85
2022/01/23 10:01:56;;;;;;;30.67;22.70;;;8.40;99.90;;;;;;5050775;28;20440;-84
2022/01/23 10:04:26;;;;;;;28.30;22.63;;;8.20;99.90;;;;;;5054656;28;20500;-84
2022/01/23 10:06:55;;;;;;;26.80;20.33;;;8.00;99.90;;;;;;5049125;28;20471;-86
2022/01/23 10:09:24;;;;;;;27.47;21.10;;;8.10;99.90;;;;;;5049155;28;20445;-86
2022/01/23 10:11:51;;;;;;;22.30;18.47;;;8.20;99.90;;;;;;5048293;28;21030;-84
2022/01/23 10:14:19;;;;;;;19.13;15.83;;;8.30;99.90;;;;;;5054087;28;20474;-86
2022/01/23 10:16:46;;;;;;;19.67;16.23;;;8.30;99.90;;;;;;5057640;28;20480;-87
2022/01/23 10:19:14;;;;;;;18.97;15.27;;;8.60;99.90;;;;;;5052898;28;20452;-85
2022/01/23 10:21:43;;;;;;;20.27;17.17;;;8.70;99.90;;;;;;5053808;28;20434;-84
2022/01/23 10:24:13;;;;;;;21.77;17.57;;;8.90;99.90;;;;;;5050880;28;20444;-85
2022/01/23 10:26:51;;;;;;;23.57;18.90;;;8.90;99.90;;;;;;5062065;28;20440;-88
2022/01/23 10:29:21;;;;;;;22.27;17.77;;;8.60;99.90;;;;;;5073250;28;20460;-86
2022/01/23 10:32:03;;;;;;;24.50;19.00;;;8.80;99.90;;;;;;5067339;28;21014;-87
2022/01/23 10:34:45;;;;;;;24.13;19.30;;;8.60;99.90;;;;;;5070934;28;20442;-85
2022/01/23 10:37:13;;;;;;;25.53;20.00;;;8.30;99.90;;;;;;5055901;28;20475;-84
2022/01/23 10:39:46;;;;;;;24.60;21.00;;;8.20;99.90;;;;;;5052377;28;20460;-86
2022/01/23 10:42:28;;;;;;;29.23;22.57;;;8.10;99.90;;;;;;5046955;28;20451;-85
2022/01/23 10:47:49;;;;;;;17.93;13.90;;;7.90;99.90;;;;;;5047289;28;20431;-85
2022/01/23 10:50:16;;;;;;;22.73;16.77;;;7.70;99.90;;;;;;5054396;28;20447;-85
2022/01/23 10:52:47;;;;;;;24.50;18.47;;;7.70;99.90;;;;;;5068701;28;20426;-83
2022/01/23 10:55:28;;;;;;;20.53;17.10;;;7.90;99.90;;;;;;5070765;28;20444;-87
2022/01/23 10:58:00;;;;;;;23.83;19.63;;;8.10;99.90;;;;;;5061259;28;20429;-84
2022/01/23 11:00:29;;;;;;;21.03;16.40;;;8.30;99.90;;;;;;5059406;28;20456;-86
2022/01/23 11:02:58;;;;;;;20.00;15.40;;;8.10;99.90;;;;;;5058861;28;20425;-83
2022/01/23 11:05:32;;;;;;;20.03;15.67;;;8.10;99.90;;;;;;5049283;28;20480;-86
2022/01/23 11:07:58;;;;;;;18.93;15.47;;;7.90;99.90;;;;;;5050502;28;20456;-84
2022/01/23 11:10:27;;;;;;;21.23;16.30;;;8.00;99.90;;;;;;5052563;28;20453;-84
2022/01/23 11:18:39;;;;;;;20.50;16.50;;;8.40;99.90;;;;;;5050777;28;20432;-86
2022/01/23 11:21:18;;;;;;;19.27;14.40;;;8.50;99.90;;;;;;5045455;28;20477;-84
2022/01/23 11:23:45;;;;;;;15.07;13.33;;;8.10;99.90;;;;;;5062738;28;20438;-84
2022/01/23 11:26:13;;;;;;;17.37;14.20;;;7.80;99.90;;;;;;5056341;28;20518;-84
2022/01/23 11:28:44;;;;;;;18.67;14.87;;;7.90;99.90;;;;;;5050349;28;20745;-84
2022/01/23 11:31:13;;;;;;;17.43;12.60;;;8.20;99.90;;;;;;5050829;28;20452;-86
2022/01/23 11:33:41;;;;;;;20.20;14.90;;;8.10;99.90;;;;;;5048159;28;20449;-86
2022/01/23 11:36:09;;;;;;;21.93;16.60;;;8.30;99.90;;;;;;5049934;28;20488;-84
2022/01/23 11:38:37;;;;;;;13.50;11.50;;;8.50;99.90;;;;;;5046845;28;20437;-85
2022/01/23 11:55:01;;;;;;;19.33;14.97;;;8.90;99.90;;;;;;5054278;28;20451;-84
2022/01/23 11:57:43;;;;;;;17.57;13.97;;;9.00;99.90;;;;;;5059741;28;20488;-85
2022/01/23 12:00:17;;;;;;;19.33;16.43;;;8.90;99.90;;;;;;5057952;28;20450;-83
2022/01/23 12:02:45;;;;;;;17.17;13.57;;;8.90;99.90;;;;;;5053698;28;20452;-85
2022/01/23 12:05:23;;;;;;;16.13;13.47;;;8.80;99.90;;;;;;5051436;28;20437;-83
2022/01/23 12:08:16;;;;;;;20.10;14.27;;;8.80;99.90;;;;;;5067547;22;20572;-89
2022/01/23 12:10:53;;;;;;;21.80;16.67;;;8.90;99.90;;;;;;5030470;28;20456;-88
2022/01/23 12:13:55;;;;;;;21.63;16.70;;;8.80;99.90;;;;;;5032387;28;20527;-88
2022/01/23 12:16:26;;;;;;;20.20;15.40;;;8.60;99.90;;;;;;5037847;28;20483;-87
2022/01/23 12:19:12;;;;;;;22.13;16.60;;;8.10;99.90;;;;;;5038706;28;20538;-88
2022/01/23 12:21:39;;;;;;;20.70;14.90;;;8.10;99.90;;;;;;5033688;28;20449;-88
2022/01/23 12:24:09;;;;;;;24.50;18.70;;;8.00;99.90;;;;;;5033814;28;20453;-88
2022/01/23 12:26:35;;;;;;;22.83;17.20;;;8.00;99.90;;;;;;5033673;28;20545;-88
2022/01/23 12:29:12;;;;;;;21.00;16.30;;;8.00;99.90;;;;;;5034653;28;20496;-88
2022/01/23 12:31:41;;;;;;;20.13;16.00;;;7.90;99.90;;;;;;5035632;28;20475;-87
2022/01/23 12:34:08;;;;;;;20.00;16.00;;;7.80;99.90;;;;;;5033759;28;20941;-87
2022/01/23 12:36:37;;;;;;;18.83;15.47;;;7.90;99.90;;;;;;5041037;28;20524;-87
2022/01/23 12:39:18;;;;;;;21.33;15.87;;;8.00;99.90;;;;;;5057411;28;20465;-87
2022/01/23 12:41:54;;;;;;;20.33;14.67;;;8.10;99.90;;;;;;5038276;28;20444;-88
2022/01/23 12:44:35;;;;;;;17.83;13.90;;;8.10;99.90;;;;;;5033866;28;20456;-88
2022/01/23 12:47:05;;;;;;;18.50;13.60;;;8.10;99.90;;;;;;5033402;28;20449;-88
2022/01/23 12:49:34;;;;;;;19.43;13.90;;;8.20;99.90;;;;;;5033608;28;20469;-88
2022/01/23 12:52:15;;;;;;;19.20;15.33;;;8.10;99.90;;;;;;5032658;28;20453;-88
2022/01/23 12:55:06;;;;;;;17.40;14.67;;;8.00;99.90;;;;;;5032549;28;20453;-88
2022/01/23 12:57:38;;;;;;;17.97;13.70;;;8.20;99.90;;;;;;5022592;28;20520;-89
2022/01/23 13:00:10;;;;;;;17.07;13.03;;;8.40;99.90;;;;;;5032376;28;20499;-89
2022/01/23 13:02:43;;;;;;;14.80;11.97;;;8.50;99.90;;;;;;5034640;28;21013;-88
2022/01/23 13:05:11;;;;;;;15.07;12.50;;;8.50;99.90;;;;;;5032849;28;20457;-88
2022/01/23 13:07:43;;;;;;;19.23;13.30;;;8.50;99.90;;;;;;5032982;28;20463;-88
2022/01/23 13:10:26;;;;;;;10.77;7.77;;;8.50;99.90;;;;;;5033034;28;20453;-88
2022/01/23 13:13:05;;;;;;;13.10;10.73;;;8.60;99.90;;;;;;5033216;28;20453;-88
2022/01/23 13:15:55;;;;;;;17.80;10.07;;;8.70;99.90;;;;;;5013012;28;20453;-88
2022/01/23 13:18:38;;;;;;;13.13;10.40;;;8.50;99.30;;;;;;5032753;28;20970;-88
2022/01/23 13:32:18;;;;;;;4.33;3.83;;;8.70;99.10;;;;;;5033446;28;20448;-88
2022/01/23 13:34:50;;;;;;;2.70;2.03;;;8.60;96.90;;;;;;5048346;28;20455;-88
2022/01/23 13:37:18;;;;;;;2.40;2.17;;;8.40;94.40;;;;;;5045141;28;20572;-88
2022/01/23 13:39:50;;;;;;;4.10;3.37;;;8.30;95.10;;;;;;5034156;28;20559;-88
2022/01/23 13:42:47;;;;;;;3.33;3.03;;;8.20;95.20;;;;;;5035783;28;20445;-87
2022/01/23 13:59:50;;;;;;;3.70;3.03;;;8.60;94.10;;;;;;5025916;28;20814;-87
2022/01/23 14:02:23;;;;;;;3.43;2.93;;;8.80;93.70;;;;;;5036251;28;20932;-88
2022/01/23 14:04:52;;;;;;;3.00;2.70;;;8.90;93.40;;;;;;5033170;28;20456;-88
2022/01/23 14:07:23;;;;;;;3.77;2.70;;;8.70;92.40;;;;;;5032841;28;20445;-88
2022/01/23 14:09:51;;;;;;;2.93;2.50;;;8.50;92.50;;;;;;5038294;28;20445;-88
2022/01/23 14:12:20;;;;;;;2.80;2.43;;;8.30;92.90;;;;;;5035099;28;20445;-87
2022/01/23 14:14:54;;;;;;;3.87;3.27;;;8.50;93.50;;;;;;5034564;28;20445;-89
2022/01/23 14:17:21;;;;;;;5.37;4.00;;;8.60;93.90;;;;;;5033614;28;20481;-88
2022/01/23 14:19:59;;;;;;;3.27;2.97;;;8.60;93.10;;;;;;5037001;28;20484;-88
2022/01/23 14:22:33;;;;;;;3.70;3.40;;;8.60;93.40;;;;;;5036643;28;20449;-87
2022/01/23 14:25:13;;;;;;;4.20;3.30;;;8.60;93.30;;;;;;5033758;28;20478;-88
2022/01/23 14:27:41;;;;;;;4.50;3.87;;;8.50;93.50;;;;;;5055090;28;20437;-89
2022/01/23 14:30:13;;;;;;;4.33;3.83;;;8.30;93.60;;;;;;5052354;28;20433;-87
2022/01/23 14:32:44;;;;;;;3.30;2.90;;;8.20;93.50;;;;;;5040299;28;20511;-88
2022/01/23 14:35:14;;;;;;;3.77;3.43;;;8.10;94.00;;;;;;5046591;28;20523;-88
2022/01/23 14:37:44;;;;;;;3.43;2.83;;;7.90;93.80;;;;;;5045580;28;20492;-88
2022/01/23 14:40:18;;;;;;;4.50;2.60;;;7.80;94.00;;;;;;5034490;28;20445;-88
2022/01/23 14:43:05;;;;;;;3.43;2.80;;;7.70;94.00;;;;;;5035745;28;20445;-88
2022/01/23 14:45:34;;;;;;;3.67;3.20;;;7.60;94.20;;;;;;5033789;28;20445;-88
2022/01/23 14:48:02;;;;;;;6.30;2.63;;;7.60;94.10;;;;;;5013825;28;20497;-88
2022/01/23 14:50:31;;;;;;;4.17;3.13;;;7.60;94.10;;;;;;5022219;28;20541;-89
2022/01/23 14:53:06;;;;;;;4.27;3.70;;;7.60;94.00;;;;;;5035451;28;20449;-88
2022/01/23 14:55:33;;;;;;;3.90;3.50;;;7.50;94.50;;;;;;5036229;28;20488;-88
2022/01/23 14:58:01;;;;;;;6.07;4.87;;;7.50;94.90;;;;;;5036857;28;20491;-88
2022/01/23 15:00:30;;;;;;;6.20;3.97;;;7.50;95.10;;;;;;5017956;28;20541;-88
2022/01/23 15:02:57;;;;;;;5.37;4.50;;;7.20;94.60;;;;;;5031084;28;20449;-88
2022/01/23 15:05:24;;;;;;;6.30;4.30;;;7.20;95.10;;;;;;5037020;28;20822;-88
2022/01/23 15:07:54;;;;;;;4.77;3.40;;;7.20;95.30;;;;;;5036661;28;20469;-88
2022/01/23 15:10:21;;;;;;;6.10;4.43;;;7.20;95.30;;;;;;5036355;28;20481;-88
2022/01/23 15:12:48;;;;;;;4.60;3.37;;;7.30;95.70;;;;;;5036464;28;20449;-88
2022/01/23 15:15:15;;;;;;;6.70;4.90;;;7.20;95.50;;;;;;5036691;28;20456;-88
2022/01/23 15:17:42;;;;;;;4.80;3.83;;;7.00;95.50;;;;;;5035432;28;21026;-88
2022/01/23 15:20:10;;;;;;;4.53;3.80;;;7.10;95.90;;;;;;5035529;28;20958;-88
2022/01/23 15:22:36;;;;;;;5.10;4.20;;;7.20;96.10;;;;;;5035487;28;20446;-88
2022/01/23 15:25:06;;;;;;;4.93;4.43;;;7.20;96.20;;;;;;5035978;28;20466;-88
2022/01/23 15:27:34;;;;;;;6.03;4.60;;;7.20;96.20;;;;;;5036353;28;20445;-87
2022/01/23 15:30:01;;;;;;;5.03;4.53;;;7.00;96.70;;;;;;5056136;28;20453;-88
2022/01/23 15:32:27;;;;;;;4.57;4.07;;;6.90;97.10;;;;;;5045145;28;20973;-88
2022/01/23 15:34:54;;;;;;;6.63;4.23;;;6.80;97.20;;;;;;5034854;28;20794;-88